createdAt,value
2019-04-01T00:02:09.394Z,3.88
2019-04-01T00:04:37.843Z,3.79
2019-04-01T00:07:06.300Z,3.94
2019-04-01T00:09:34.748Z,4.04
2019-04-01T00:12:03.194Z,3.88
2019-04-01T00:14:31.628Z,3.84
2019-04-01T00:17:00.080Z,3.89
2019-04-01T00:19:28.530Z,3.82
2019-04-01T00:21:56.956Z,3.88
2019-04-01T00:24:25.496Z,3.70
2019-04-01T00:26:53.956Z,3.70
2019-04-01T00:29:22.386Z,3.55
2019-04-01T00:31:50.816Z,3.59
2019-04-01T00:34:19.284Z,3.42
2019-04-01T00:36:47.726Z,3.57
2019-04-01T00:39:16.160Z,3.57
2019-04-01T00:41:48.918Z,3.48
2019-04-01T00:44:17.358Z,3.39
2019-04-01T00:46:45.800Z,3.50
2019-04-01T00:49:14.291Z,3.42
2019-04-01T00:51:42.748Z,3.58
2019-04-01T00:54:11.174Z,3.41
2019-04-01T00:56:39.599Z,3.51
2019-04-01T00:59:08.049Z,3.42
2019-04-01T01:01:36.479Z,3.49
2019-04-01T01:04:04.904Z,3.29
2019-04-01T01:06:33.351Z,3.20
2019-04-01T01:09:01.796Z,3.16
2019-04-01T01:11:30.200Z,3.10
2019-04-01T01:13:58.654Z,3.18
2019-04-01T01:16:27.099Z,3.19
2019-04-01T01:18:55.552Z,3.14
2019-04-01T01:21:25.559Z,3.18
2019-04-01T01:23:54.013Z,3.15
2019-04-01T01:26:22.448Z,3.11
2019-04-01T01:28:50.912Z,3.02
2019-04-01T01:31:19.320Z,3.05
2019-04-01T01:33:47.744Z,2.87
2019-04-01T01:36:16.202Z,2.97
2019-04-01T01:38:44.655Z,2.98
2019-04-01T01:41:13.070Z,2.88
2019-04-01T01:43:41.519Z,2.87
2019-04-01T01:46:09.954Z,2.84
2019-04-01T01:48:38.405Z,2.95
2019-04-01T01:51:06.840Z,2.98
2019-04-01T01:53:35.294Z,3.07
2019-04-01T01:56:03.768Z,2.84
2019-04-01T01:58:32.189Z,2.93
2019-04-01T02:01:00.622Z,2.95
2019-04-01T02:03:29.090Z,2.81
2019-04-01T02:05:57.534Z,2.68
2019-04-01T02:08:26.012Z,2.65
2019-04-01T02:10:54.453Z,2.71
2019-04-01T02:13:22.906Z,2.67
2019-04-01T02:15:51.364Z,2.64
2019-04-01T02:18:19.809Z,2.55
2019-04-01T02:20:48.233Z,2.54
2019-04-01T02:23:16.716Z,2.73
2019-04-01T02:25:45.246Z,2.73
2019-04-01T02:28:13.681Z,2.54
2019-04-01T02:30:42.121Z,2.55
2019-04-01T02:33:10.578Z,2.56
2019-04-01T02:35:39.039Z,2.58
2019-04-01T02:38:07.480Z,2.71
2019-04-01T02:40:36.101Z,2.69
2019-04-01T02:43:04.675Z,2.77
2019-04-01T02:45:33.131Z,2.48
2019-04-01T02:48:01.578Z,2.46
2019-04-01T02:50:30.002Z,2.64
2019-04-01T02:52:58.483Z,2.53
2019-04-01T02:55:26.899Z,2.38
2019-04-01T02:57:55.322Z,2.31
2019-04-01T03:00:23.778Z,2.41
2019-04-01T03:02:52.233Z,2.42
2019-04-01T03:05:20.688Z,2.23
2019-04-01T03:07:49.119Z,2.17
2019-04-01T03:10:17.548Z,2.16
2019-04-01T03:12:46.003Z,2.13
2019-04-01T03:15:14.456Z,2.23
2019-04-01T03:17:42.887Z,2.17
2019-04-01T03:20:11.507Z,2.04
2019-04-01T03:22:39.973Z,1.91
2019-04-01T03:25:08.581Z,1.91
2019-04-01T03:27:37.036Z,2.04
2019-04-01T03:30:06.322Z,1.94
2019-04-01T03:32:34.780Z,1.73
2019-04-01T03:35:03.329Z,1.72
2019-04-01T03:37:31.749Z,1.67
2019-04-01T03:40:00.629Z,1.78
2019-04-01T03:42:29.235Z,1.74
2019-04-01T03:44:57.673Z,1.67
2019-04-01T03:47:26.138Z,1.69
2019-04-01T03:49:54.601Z,1.63
2019-04-01T03:52:23.047Z,1.64
2019-04-01T03:54:51.503Z,1.67
2019-04-01T03:57:19.949Z,1.68
2019-04-01T03:59:48.430Z,1.66
2019-04-01T04:02:16.894Z,1.63
2019-04-01T04:04:45.329Z,1.54
2019-04-01T04:07:13.801Z,1.53
2019-04-01T04:09:42.226Z,1.53
2019-04-01T04:12:10.683Z,1.63
2019-04-01T04:14:39.167Z,1.65
2019-04-01T04:17:07.614Z,1.50
2019-04-01T04:19:36.075Z,1.43
2019-04-01T04:22:04.515Z,1.34
2019-04-01T04:24:32.980Z,1.41
2019-04-01T04:27:01.418Z,1.32
2019-04-01T04:29:29.851Z,1.20
2019-04-01T04:31:58.333Z,1.21
2019-04-01T04:34:26.979Z,1.31
2019-04-01T04:36:55.476Z,1.26
2019-04-01T04:39:23.938Z,1.31
2019-04-01T04:41:52.401Z,1.34
2019-04-01T04:44:21.009Z,1.37
2019-04-01T04:46:49.862Z,1.39
2019-04-01T04:49:18.303Z,1.27
2019-04-01T04:51:46.831Z,1.33
2019-04-01T04:54:15.294Z,1.26
2019-04-01T04:56:43.737Z,1.37
2019-04-01T04:59:12.207Z,1.13
2019-04-01T05:01:40.639Z,1.01
2019-04-01T05:04:09.105Z,1.17
2019-04-01T05:06:37.581Z,1.11
2019-04-01T05:09:06.700Z,1.33
2019-04-01T05:11:35.164Z,1.17
2019-04-01T05:14:03.707Z,1.25
2019-04-01T05:16:32.152Z,1.42
2019-04-01T05:19:00.607Z,1.50
2019-04-01T05:21:30.258Z,1.50
2019-04-01T05:23:59.174Z,1.62
2019-04-01T05:26:28.091Z,1.61
2019-04-01T05:28:58.385Z,1.76
2019-04-01T05:31:28.757Z,1.74
2019-04-01T05:34:00.257Z,1.85
2019-04-01T05:36:28.863Z,1.96
2019-04-01T05:38:57.769Z,1.95
2019-04-01T05:41:26.327Z,1.98
2019-04-01T05:43:55.035Z,2.06
2019-04-01T05:46:23.467Z,2.13
2019-04-01T05:48:52.102Z,2.40
2019-04-01T05:51:20.574Z,2.41
2019-04-01T05:53:49.610Z,2.57
2019-04-01T05:56:18.008Z,2.45
2019-04-01T05:58:46.473Z,2.40
2019-04-01T06:01:25.585Z,2.66
2019-04-01T06:03:54.051Z,2.76
2019-04-01T06:06:22.471Z,2.93
2019-04-01T06:08:50.905Z,3.01
2019-04-01T06:11:19.380Z,2.97
2019-04-01T06:13:47.913Z,3.19
2019-04-01T06:16:16.555Z,3.23
2019-04-01T06:18:45.105Z,3.32
2019-04-01T06:21:14.716Z,3.47
2019-04-01T06:23:43.226Z,3.86
2019-04-01T06:26:11.856Z,4.13
2019-04-01T06:28:40.304Z,4.22
2019-04-01T06:31:08.842Z,4.18
2019-04-01T06:33:37.335Z,4.36
2019-04-01T06:36:05.801Z,4.46
2019-04-01T06:38:34.314Z,4.12
2019-04-01T06:41:02.782Z,4.26
2019-04-01T06:43:31.238Z,4.42
2019-04-01T06:45:59.693Z,4.63
2019-04-01T06:48:35.663Z,4.31
2019-04-01T06:51:04.313Z,4.45
2019-04-01T06:53:32.776Z,4.60
2019-04-01T06:56:01.237Z,4.46
2019-04-01T06:58:29.697Z,4.40
2019-04-01T07:00:58.300Z,4.39
2019-04-01T07:03:26.771Z,4.57
2019-04-01T07:05:55.210Z,4.58
2019-04-01T07:08:23.674Z,4.53
2019-04-01T07:10:52.111Z,4.67
2019-04-01T07:13:20.581Z,4.86
2019-04-01T07:15:49.007Z,5.06
2019-04-01T07:18:17.610Z,5.12
2019-04-01T07:20:46.123Z,5.25
2019-04-01T07:23:14.630Z,5.20
2019-04-01T07:25:43.146Z,5.28
2019-04-01T07:28:11.615Z,5.37
2019-04-01T07:30:41.861Z,5.31
2019-04-01T07:33:10.335Z,5.46
2019-04-01T07:35:38.795Z,5.44
2019-04-01T07:38:07.296Z,5.64
2019-04-01T07:40:35.963Z,5.78
2019-04-01T07:43:04.740Z,5.92
2019-04-01T07:45:33.181Z,6.08
2019-04-01T07:48:01.637Z,5.97
2019-04-01T07:50:30.142Z,5.84
2019-04-01T07:52:58.616Z,6.00
2019-04-01T07:55:27.140Z,6.07
2019-04-01T07:57:55.560Z,6.10
2019-04-01T08:00:24.886Z,6.00
2019-04-01T08:02:53.359Z,6.10
2019-04-01T08:05:21.803Z,6.10
2019-04-01T08:07:50.276Z,6.13
2019-04-01T08:10:19.001Z,6.07
2019-04-01T08:12:47.453Z,6.16
2019-04-01T08:15:16.388Z,6.20
2019-04-01T08:17:44.995Z,6.31
2019-04-01T08:20:15.288Z,6.40
2019-04-01T08:22:43.770Z,6.37
2019-04-01T08:25:12.239Z,6.50
2019-04-01T08:27:40.659Z,6.59
2019-04-01T08:30:09.668Z,6.58
2019-04-01T08:32:38.107Z,6.61
2019-04-01T08:35:07.239Z,6.64
2019-04-01T08:37:35.847Z,6.35
2019-04-01T08:40:06.145Z,6.66
2019-04-01T08:42:36.140Z,6.78
2019-04-01T08:45:07.352Z,6.78
2019-04-01T08:47:35.832Z,6.59
2019-04-01T08:50:06.460Z,6.78
2019-04-01T08:52:35.107Z,6.81
2019-04-01T08:55:05.274Z,6.85
2019-04-01T08:57:33.890Z,6.86
2019-04-01T09:00:02.432Z,6.93
2019-04-01T09:02:31.060Z,7.02
2019-04-01T09:05:00.384Z,7.12
2019-04-01T09:07:28.843Z,7.30
2019-04-01T09:09:58.288Z,7.41
2019-04-01T09:12:27.977Z,7.40
2019-04-01T09:14:57.763Z,7.65
2019-04-01T09:17:26.450Z,7.73
2019-04-01T09:19:54.896Z,7.74
2019-04-01T09:22:23.361Z,7.83
2019-04-01T09:24:51.782Z,7.58
2019-04-01T09:27:20.255Z,7.74
2019-04-01T09:29:48.675Z,7.78
2019-04-01T09:32:17.117Z,7.79
2019-04-01T09:34:45.610Z,7.79
2019-04-01T09:37:14.051Z,7.73
2019-04-01T09:39:42.475Z,7.87
2019-04-01T09:42:10.938Z,7.89
2019-04-01T09:44:39.381Z,7.78
2019-04-01T09:47:07.835Z,8.00
2019-04-01T09:49:36.298Z,8.14
2019-04-01T09:52:04.817Z,8.20
2019-04-01T09:54:33.279Z,8.13
2019-04-01T09:57:16.115Z,8.17
2019-04-01T09:59:31.961Z,8.01
2019-04-01T10:02:00.426Z,8.09
2019-04-01T10:04:28.870Z,8.23
2019-04-01T10:06:57.345Z,8.28
2019-04-01T10:09:25.809Z,8.30
2019-04-01T10:11:54.394Z,8.22
2019-04-01T10:14:22.870Z,8.35
2019-04-01T10:16:51.297Z,8.70
2019-04-01T10:19:19.926Z,8.79
2019-04-01T10:21:49.157Z,8.63
2019-04-01T10:24:17.627Z,8.46
2019-04-01T10:26:46.098Z,8.70
2019-04-01T10:29:14.529Z,8.70
2019-04-01T10:31:43.002Z,8.88
2019-04-01T10:34:11.464Z,8.67
2019-04-01T10:36:39.919Z,8.43
2019-04-01T10:39:08.423Z,8.69
2019-04-01T10:41:36.944Z,8.73
2019-04-01T10:44:05.392Z,8.68
2019-04-01T10:46:33.932Z,8.88
2019-04-01T10:49:02.369Z,8.71
2019-04-01T10:51:30.841Z,8.79
2019-04-01T10:53:59.277Z,8.84
2019-04-01T10:56:27.755Z,8.64
2019-04-01T10:58:57.101Z,8.78
2019-04-01T11:01:25.536Z,8.69
2019-04-01T11:03:54.043Z,8.67
2019-04-01T11:06:22.439Z,8.74
2019-04-01T11:08:51.007Z,8.89
2019-04-01T11:11:19.470Z,9.10
2019-04-01T11:13:51.562Z,8.95
2019-04-01T11:16:18.408Z,9.03
2019-04-01T11:18:46.875Z,9.09
2019-04-01T11:21:15.349Z,9.25
2019-04-01T11:23:43.784Z,9.00
2019-04-01T11:26:12.241Z,9.04
2019-04-01T11:28:40.689Z,9.13
2019-04-01T11:31:09.182Z,9.30
2019-04-01T11:33:37.623Z,9.44
2019-04-01T11:36:06.133Z,9.20
2019-04-01T11:38:34.669Z,9.26
2019-04-01T11:41:03.208Z,9.26
2019-04-01T11:43:35.350Z,9.38
2019-04-01T11:46:02.182Z,9.45
2019-04-01T11:48:30.649Z,9.54
2019-04-01T11:50:59.124Z,9.54
2019-04-01T11:53:27.775Z,9.51
2019-04-01T11:55:56.220Z,9.56
2019-04-01T11:58:24.666Z,9.58
2019-04-01T12:00:53.210Z,9.56
2019-04-01T12:03:21.648Z,9.65
2019-04-01T12:05:50.076Z,9.50
2019-04-01T12:08:18.572Z,9.66
2019-04-01T12:10:47.006Z,9.74
2019-04-01T12:13:15.437Z,9.89
2019-04-01T12:15:43.904Z,10.03
2019-04-01T12:18:12.350Z,9.81
2019-04-01T12:20:40.860Z,9.98
2019-04-01T12:23:09.490Z,9.97
2019-04-01T12:25:39.839Z,10.20
2019-04-01T12:28:08.327Z,10.19
2019-04-01T12:30:36.779Z,10.14
2019-04-01T12:33:05.246Z,10.17
2019-04-01T12:35:34.102Z,10.07
2019-04-01T12:38:02.554Z,10.19
2019-04-01T12:40:31.127Z,10.26
2019-04-01T12:42:59.559Z,10.32
2019-04-01T12:45:28.036Z,10.64
2019-04-01T12:47:56.530Z,10.64
2019-04-01T12:50:24.983Z,10.36
2019-04-01T12:52:53.438Z,10.36
2019-04-01T12:55:21.932Z,10.25
2019-04-01T12:57:51.008Z,10.29
2019-04-01T13:00:19.904Z,10.36
2019-04-01T13:02:49.487Z,10.57
2019-04-01T13:05:18.018Z,11.04
2019-04-01T13:07:46.487Z,11.04
2019-04-01T13:10:15.093Z,10.88
2019-04-01T13:12:43.608Z,10.50
2019-04-01T13:15:12.976Z,10.64
2019-04-01T13:17:41.791Z,10.64
2019-04-01T13:20:10.821Z,10.71
2019-04-01T13:22:39.265Z,10.71
2019-04-01T13:25:08.171Z,10.62
2019-04-01T13:27:36.645Z,10.55
2019-04-01T13:30:07.198Z,10.78
2019-04-01T13:32:35.669Z,10.78
2019-04-01T13:35:07.647Z,11.08
2019-04-01T13:37:36.111Z,11.22
2019-04-01T13:40:05.981Z,11.27
2019-04-01T13:42:34.508Z,11.12
2019-04-01T13:45:03.144Z,11.26
2019-04-01T13:47:31.604Z,11.26
2019-04-01T13:50:00.090Z,11.36
2019-04-01T13:52:28.551Z,11.36
2019-04-01T13:54:56.998Z,11.38
2019-04-01T13:57:25.594Z,11.37
2019-04-01T13:59:54.048Z,11.33
2019-04-01T14:02:22.517Z,11.15
2019-04-01T14:04:50.995Z,11.15
2019-04-01T14:07:19.457Z,11.23
2019-04-01T14:09:47.919Z,11.20
2019-04-01T14:12:16.356Z,11.13
2019-04-01T14:14:44.826Z,11.45
2019-04-01T14:17:13.267Z,11.45
2019-04-01T14:19:41.698Z,11.77
2019-04-01T14:22:10.181Z,11.81
2019-04-01T14:24:38.641Z,11.85
2019-04-01T14:27:07.073Z,11.74
2019-04-01T14:29:36.564Z,11.64
2019-04-01T14:32:05.257Z,11.64
2019-04-01T14:34:33.731Z,11.77
2019-04-01T14:37:04.850Z,11.71
2019-04-01T14:39:34.794Z,11.85
2019-04-01T14:42:02.758Z,12.15
2019-04-01T14:44:31.216Z,11.80
2019-04-01T14:46:59.686Z,11.88
2019-04-01T14:49:28.136Z,11.78
2019-04-01T14:51:56.560Z,11.89
2019-04-01T14:54:25.014Z,11.95
2019-04-01T14:56:53.461Z,12.10
2019-04-01T14:59:21.939Z,11.99
2019-04-01T15:01:50.388Z,12.06
2019-04-01T15:04:18.817Z,11.93
2019-04-01T15:06:47.465Z,11.90
2019-04-01T15:09:17.305Z,11.85
2019-04-01T15:11:45.878Z,11.86
2019-04-01T15:14:14.302Z,11.61
2019-04-01T15:16:42.999Z,11.56
2019-04-01T15:19:13.032Z,11.57
2019-04-01T15:21:41.568Z,11.68
2019-04-01T15:24:10.021Z,11.63
2019-04-01T15:26:38.465Z,11.56
2019-04-01T15:29:06.942Z,11.63
2019-04-01T15:31:35.369Z,11.57
2019-04-01T15:34:03.808Z,11.36
2019-04-01T15:36:32.286Z,11.29
2019-04-01T15:39:00.821Z,11.32
2019-04-01T15:41:29.250Z,11.35
2019-04-01T15:43:57.738Z,11.46
2019-04-01T15:46:26.196Z,11.28
2019-04-01T15:48:54.629Z,11.30
2019-04-01T15:51:23.087Z,11.32
2019-04-01T15:53:51.520Z,11.39
2019-04-01T15:56:19.975Z,11.22
2019-04-01T15:58:50.800Z,11.19
2019-04-01T16:01:18.620Z,11.19
2019-04-01T16:03:47.079Z,11.22
2019-04-01T16:06:15.520Z,11.10
2019-04-01T16:08:43.988Z,11.10
